CheckWX is a tool to help pilots better visualize weather data.  It is not intended as a substitute for an official pre-flight weather briefing.

02:52:23 UTC

ZGKL TAF
Guilin Liangjiang International Airport
Guilin City, China
TAF ZGKL 221911Z 2300/2324 18002MPS 8000 SCT026 OVC050 TX30/2308Z TN22/2322Z

Apr-23@
00:00 UTC

Apr-23 @ 00:00 UTC

Apr-24@
00:00 UTC

Apr-24 @ 00:00 UTC

TAF ZGKL 221911Z 2300/2324 18002MPS 8000 SCT026 OVC050 TX30/2308Z TN22/2322Z
Wind
  • 180° at 4 KTS
Cloud Levels
  • Scattered at 2,600' AGL
  • Overcast at 5,000' AGL